Accueil
METAR-TAF:

METAR-TAF

Aéroports :

Beyrouth, Liban

latitude: 33-49N, longitude: 035-29E, altitude: 29 m

Observation

Le bulletin a été fait il y a 47 minutes, à 07:00 UTC
Vent 10 kt de sud/sud-ouest
Température 30°C
Humidité 70%
Pression 1007 hPa
Visibilité: 8000 m
Quelques nuages à une hauteur de 2700 ft

METAR: OLBA 030700Z 21010KT 8000 FEW027 30/24 Q1007 NOSIG

Heure: 10:47 (07:47 UTC)

Prévision

Le bulletin a été fait il y a 3 heures et 47 minutes, à 04:00 UTC
Prévision valable du 03 à 06 UTC au 04 à 12 UTC
Vent 12 kt de ouest/sud-ouest
Visibilité: 8000 m
Quelques nuages à une hauteur de 2600 ft
Evoluant progressivement
du 03 à 18 UTC au 03 à 21 UTC
Vent 5 kt de sud/sud-est
Evoluant progressivement
du 04 à 06 UTC au 04 à 08 UTC
Vent 12 kt de sud-ouest

TAF: OLBA 030400Z 0306/0412 24012KT 8000 FEW026 BECMG 0318/0321 16005KT BECMG 0406/0408 23012KT

Observations et prévisions météorologiques de plus de 4000 aéroports (messages METAR et TAF).

Les stations disponibles sont représentées par des disques jaunes et rouges sur la carte.

Passer la souris dessus pour voir le nom de la station.

Cliquer dessus pour voir les observations et prévisions météorologiques.

Pour changer de carte: cliquez sur les boutons verts avec une croix noire pour zoomer, sur le bouton vert avec un tiret pour effectuer un zoom arrière, ou sur les flèches vertes pour les cartes adjacentes.


METAR-TAF: